This is the latest recevied weather packets stored in our database for station/object KI6PPU. If no packets are shown the sender has not sent any weather packets the latest 1 day(s).
| Time | Temp. | Humidity | Pressure | Rain* | Wind** | Luminosity | Snow |
|---|---|---|---|---|---|---|---|
| 1778022193 | 15° C | 81% | 1017.6 hPa | 0 mm | 0.89 m/s, 191° | 38 W/m² | - |
| 1778021889 | 15.56° C | 81% | 1017.6 hPa | 0 mm | 0.45 m/s, 120° | 39 W/m² | - |
| 1778021587 | 15.56° C | 79% | 1017.6 hPa | 0 mm | 1.79 m/s, 90° | 49 W/m² | - |
| 1778021281 | 16.11° C | 81% | 1017.5 hPa | 0 mm | 0.45 m/s, 97° | 73 W/m² | - |
| 1778020980 | 16.11° C | 77% | 1017.5 hPa | 0 mm | 0 m/s | 115 W/m² | - |
| 1778020677 | 16.67° C | 79% | 1017.6 hPa | 0 mm | 0 m/s | 164 W/m² | - |
| 1778020373 | 16.67° C | 78% | 1017.4 hPa | 0 mm | 0.89 m/s, 356° | 181 W/m² | - |
| 1778020069 | 16.11° C | 76% | 1017.8 hPa | 0 mm | 0.89 m/s, 63° | 186 W/m² | - |
| 1778019766 | 16.11° C | 78% | 1017.5 hPa | 0 mm | 0 m/s | 213 W/m² | - |
| 1778019463 | 16.11° C | 77% | 1017.7 hPa | 0 mm | 0.89 m/s, 285° | 217 W/m² | - |
| 1778019159 | 16.11° C | 81% | 1017.5 hPa | 0 mm | 0 m/s | 194 W/m² | - |
| 1778018856 | 15.56° C | 77% | 1017.9 hPa | 0 mm | 0.45 m/s, 96° | 158 W/m² | - |
| 1778018553 | 15.56° C | 81% | 1017.9 hPa | 0 mm | 0.45 m/s, 254° | 144 W/m² | - |
| 1778018252 | 15.56° C | 81% | 1017.8 hPa | 0 mm | 0.89 m/s, 0° | 138 W/m² | - |
| 1778017949 | 15.56° C | 80% | 1017.8 hPa | 0 mm | 0.89 m/s, 270° | 133 W/m² | - |
| 1778017647 | 15.56° C | 80% | 1017.9 hPa | 0 mm | 0 m/s | 125 W/m² | - |
| 1778017344 | 15.56° C | 83% | 1017.9 hPa | 0 mm | 0.89 m/s, 357° | 133 W/m² | - |
| 1778017041 | 15.56° C | 80% | 1017.9 hPa | 0 mm | 0 m/s | 139 W/m² | - |
| 1778016738 | 15.56° C | 79% | 1018.1 hPa | 0 mm | 0.89 m/s, 356° | 143 W/m² | - |
| 1778016434 | 15.56° C | 79% | 1017.9 hPa | 0 mm | 0 m/s | 148 W/m² | - |
| 1778016132 | 15.56° C | 80% | 1017.8 hPa | 0 mm | 0 m/s | 144 W/m² | - |
| 1778015828 | 15° C | 82% | 1018 hPa | 0 mm | 0.89 m/s, 77° | 146 W/m² | - |
| 1778015526 | 15° C | 81% | 1018.1 hPa | 0 mm | 0.89 m/s, 26° | 137 W/m² | - |
| 1778015222 | 15° C | 80% | 1018.1 hPa | 0 mm | 0 m/s | 139 W/m² | - |
| 1778014919 | 15° C | 81% | 1017.8 hPa | 0 mm | 0 m/s | 142 W/m² | - |
* Rain latest hour (hover to see other rain measurements)
** Current wind speed in m/s (hover to see current wind gust speed)